Time;durP1;ratioP1;P1;durP2;ratioP2;P2;SDS_P1;SDS_P2;PMS_P1;PMS_P2;Temp;Humidity;BMP_temperature;BMP_pressure;BME280_temperature;BME280_humidity;BME280_pressure;Samples;Min_cycle;Max_cycle;Signal;HPM_P1;HPM_P2
2021/09/12 00:00:40;;;;;;;46.58;25.50;;;17.50;99.90;;;;;;4995911;28;20140;-58
2021/09/12 00:03:09;;;;;;;47.97;27.48;;;17.50;99.90;;;;;;5013693;28;20058;-54
2021/09/12 00:05:35;;;;;;;45.38;26.33;;;17.50;99.90;;;;;;4999602;28;20515;-55
2021/09/12 00:08:01;;;;;;;43.28;24.85;;;17.40;99.90;;;;;;4993125;28;20045;-56
2021/09/12 00:10:27;;;;;;;47.03;24.20;;;17.40;99.90;;;;;;5012924;28;20034;-56
2021/09/12 00:12:53;;;;;;;43.45;25.02;;;17.40;99.90;;;;;;4995099;28;20100;-57
2021/09/12 00:15:19;;;;;;;47.05;25.92;;;17.40;99.90;;;;;;5012594;28;20042;-56
2021/09/12 00:17:45;;;;;;;41.70;26.13;;;17.40;99.90;;;;;;5012965;28;20034;-56
2021/09/12 00:20:11;;;;;;;46.85;25.88;;;17.40;99.90;;;;;;5012702;28;20517;-55
2021/09/12 00:22:37;;;;;;;45.97;25.60;;;17.40;99.90;;;;;;5012506;28;20215;-54
2021/09/12 00:25:03;;;;;;;50.50;27.05;;;17.30;99.90;;;;;;4995056;28;20045;-53
2021/09/12 00:27:29;;;;;;;53.55;26.92;;;17.30;99.90;;;;;;4979186;28;20406;-57
2021/09/12 00:29:56;;;;;;;47.10;26.08;;;17.30;99.90;;;;;;5012656;28;20042;-55
2021/09/12 00:32:22;;;;;;;47.22;25.85;;;17.30;99.90;;;;;;5012588;28;20042;-56
2021/09/12 00:34:48;;;;;;;49.55;27.70;;;17.30;99.90;;;;;;5012490;28;20034;-54
2021/09/12 00:37:14;;;;;;;47.20;26.17;;;17.30;99.90;;;;;;5012870;28;20045;-56
2021/09/12 00:39:39;;;;;;;44.92;24.73;;;17.30;99.90;;;;;;5011896;28;20042;-57
2021/09/12 00:42:05;;;;;;;47.60;26.45;;;17.20;99.90;;;;;;4978567;28;20095;-57
2021/09/12 00:44:31;;;;;;;46.20;26.40;;;17.30;99.90;;;;;;5012229;28;20063;-56
2021/09/12 00:47:10;;;;;;;49.33;25.83;;;17.30;99.90;;;;;;5012645;28;20467;-56
2021/09/12 00:49:36;;;;;;;47.58;24.58;;;17.20;99.90;;;;;;4981080;28;20042;-55
2021/09/12 00:52:06;;;;;;;39.65;23.88;;;17.20;99.90;;;;;;5012456;28;20062;-53
2021/09/12 00:54:33;;;;;;;48.35;24.45;;;17.20;99.90;;;;;;4993333;28;20317;-55
2021/09/12 00:57:00;;;;;;;42.38;24.02;;;17.20;99.90;;;;;;5013082;28;20038;-56
2021/09/12 00:59:27;;;;;;;46.78;23.70;;;17.10;99.90;;;;;;4980802;28;20466;-57
2021/09/12 01:01:55;;;;;;;41.28;23.65;;;17.10;99.90;;;;;;5014281;28;20052;-55
2021/09/12 01:04:20;;;;;;;42.20;22.85;;;17.10;99.90;;;;;;4980481;28;20137;-55
2021/09/12 01:06:46;;;;;;;42.22;22.20;;;17.10;99.90;;;;;;5015367;28;20066;-57
2021/09/12 01:09:12;;;;;;;40.67;21.55;;;17.10;99.90;;;;;;5013531;28;20486;-55
2021/09/12 01:11:38;;;;;;;38.95;21.92;;;17.10;99.90;;;;;;4991716;28;20238;-54
2021/09/12 01:14:03;;;;;;;36.78;20.92;;;17.00;99.90;;;;;;5012641;28;20367;-54
2021/09/12 01:16:35;;;;;;;41.17;21.27;;;17.00;99.90;;;;;;4976043;28;20532;-56
2021/09/12 01:19:00;;;;;;;34.72;20.63;;;17.00;99.90;;;;;;4998769;28;20104;-56
2021/09/12 01:21:26;;;;;;;36.72;20.77;;;17.00;99.90;;;;;;5008077;28;20124;-55
2021/09/12 01:23:53;;;;;;;37.42;21.50;;;16.90;99.90;;;;;;5009498;28;20394;-56
2021/09/12 01:26:24;;;;;;;36.15;20.00;;;16.90;99.90;;;;;;5009077;28;20046;-56
2021/09/12 01:28:50;;;;;;;40.13;20.63;;;16.90;99.90;;;;;;5013979;28;20045;-56
2021/09/12 01:31:24;;;;;;;35.35;19.15;;;16.80;99.90;;;;;;5014406;28;20506;-56
2021/09/12 01:33:51;;;;;;;38.47;19.45;;;16.80;99.90;;;;;;5009230;28;20070;-56
2021/09/12 01:36:17;;;;;;;36.13;20.08;;;16.80;99.90;;;;;;4998331;28;20058;-54
2021/09/12 01:38:44;;;;;;;42.30;19.38;;;16.80;99.90;;;;;;4998199;28;20042;-54
2021/09/12 01:41:11;;;;;;;37.10;19.77;;;16.70;99.90;;;;;;5004235;28;20046;-57
2021/09/12 01:43:47;;;;;;;38.72;19.65;;;16.70;99.90;;;;;;4989178;28;20053;-56
2021/09/12 01:46:14;;;;;;;36.35;20.00;;;16.80;99.90;;;;;;5014045;28;20053;-56
2021/09/12 01:48:39;;;;;;;33.90;18.20;;;16.70;99.90;;;;;;5015580;28;20042;-56
2021/09/12 01:51:05;;;;;;;33.17;18.13;;;16.70;99.90;;;;;;4998028;28;20100;-56
2021/09/12 01:53:32;;;;;;;35.83;18.35;;;16.60;99.90;;;;;;5015989;28;20117;-56
2021/09/12 01:55:58;;;;;;;36.67;18.25;;;16.60;99.90;;;;;;5002176;28;20409;-56
2021/09/12 01:58:25;;;;;;;33.53;19.40;;;16.60;99.90;;;;;;5016180;28;20125;-55
2021/09/12 02:00:50;;;;;;;31.75;18.30;;;16.50;99.90;;;;;;5013373;28;20088;-53
2021/09/12 02:03:16;;;;;;;31.50;18.58;;;16.50;99.90;;;;;;5014411;28;20510;-55
2021/09/12 02:05:42;;;;;;;34.78;19.27;;;16.50;99.90;;;;;;5016198;28;20107;-56
2021/09/12 02:08:08;;;;;;;35.75;19.65;;;16.50;99.90;;;;;;4972769;28;20030;-56
2021/09/12 02:10:35;;;;;;;37.15;19.35;;;16.50;99.90;;;;;;5021802;28;20046;-55
2021/09/12 02:13:00;;;;;;;33.67;20.25;;;16.50;99.90;;;;;;4982129;28;20050;-55
2021/09/12 02:15:26;;;;;;;37.05;19.90;;;16.50;99.90;;;;;;5013857;28;20045;-56
2021/09/12 02:17:52;;;;;;;40.67;21.95;;;16.40;99.90;;;;;;4994908;28;20030;-56
2021/09/12 02:20:17;;;;;;;35.40;20.27;;;16.40;99.90;;;;;;5021087;28;20449;-56
2021/09/12 02:22:43;;;;;;;39.63;21.63;;;16.40;99.90;;;;;;5010846;28;20034;-53
2021/09/12 02:25:09;;;;;;;42.13;22.35;;;16.40;99.90;;;;;;5004599;28;20046;-56
2021/09/12 02:27:35;;;;;;;42.00;21.98;;;16.40;99.90;;;;;;5008083;28;20041;-55
2021/09/12 02:30:01;;;;;;;42.25;20.90;;;16.40;99.90;;;;;;5011784;28;20043;-56
2021/09/12 02:32:26;;;;;;;36.22;21.13;;;16.40;99.90;;;;;;4997976;28;20125;-56
2021/09/12 02:34:52;;;;;;;42.95;20.92;;;16.40;99.90;;;;;;4996881;28;20511;-55
2021/09/12 02:37:18;;;;;;;40.50;21.08;;;16.40;99.90;;;;;;5003874;28;20044;-55
2021/09/12 02:39:44;;;;;;;37.75;20.88;;;16.40;99.90;;;;;;5012425;28;20410;-52
2021/09/12 02:42:09;;;;;;;36.60;20.38;;;16.40;99.90;;;;;;5003780;28;20069;-52
2021/09/12 02:44:35;;;;;;;38.15;21.48;;;16.40;99.90;;;;;;5013742;28;20121;-56
2021/09/12 02:47:01;;;;;;;33.85;20.13;;;16.40;99.90;;;;;;4981198;28;20129;-57
2021/09/12 02:49:27;;;;;;;35.17;19.55;;;16.40;99.90;;;;;;5005359;28;20076;-57
2021/09/12 02:51:53;;;;;;;40.13;19.98;;;16.40;99.90;;;;;;4965858;28;20038;-57
2021/09/12 02:54:18;;;;;;;35.90;19.40;;;16.40;99.90;;;;;;5001511;28;20044;-58
2021/09/12 02:56:45;;;;;;;35.72;17.88;;;16.40;99.90;;;;;;4996191;28;20129;-57
2021/09/12 02:59:11;;;;;;;31.17;17.67;;;16.40;99.90;;;;;;4979290;28;20129;-58
2021/09/12 03:01:37;;;;;;;32.90;17.20;;;16.40;99.90;;;;;;4967490;28;20084;-57
2021/09/12 03:04:02;;;;;;;37.60;17.08;;;16.40;99.90;;;;;;4990084;28;20104;-57
2021/09/12 03:06:29;;;;;;;30.25;16.27;;;16.40;99.90;;;;;;5001044;28;20067;-55
2021/09/12 03:08:55;;;;;;;28.48;16.20;;;16.40;99.90;;;;;;4997120;28;20038;-54
2021/09/12 03:11:20;;;;;;;27.85;16.52;;;16.40;99.90;;;;;;5013668;28;20041;-53
2021/09/12 03:13:46;;;;;;;28.40;15.02;;;16.40;99.90;;;;;;5012206;28;20042;-53
2021/09/12 03:16:12;;;;;;;26.60;15.15;;;16.40;99.90;;;;;;4998483;28;20101;-52
2021/09/12 03:18:37;;;;;;;27.67;14.88;;;16.40;99.90;;;;;;4994300;28;20044;-52
2021/09/12 03:21:03;;;;;;;26.10;13.52;;;16.40;99.90;;;;;;5012488;28;20120;-56
2021/09/12 03:23:29;;;;;;;28.25;14.25;;;16.40;99.90;;;;;;4998029;28;20042;-52
2021/09/12 03:25:54;;;;;;;24.95;13.93;;;16.40;99.90;;;;;;5011190;28;20100;-52
2021/09/12 03:28:20;;;;;;;31.45;13.13;;;16.30;99.90;;;;;;5006801;28;20046;-54
2021/09/12 03:30:45;;;;;;;28.88;14.00;;;16.30;99.90;;;;;;4994123;28;20498;-55
2021/09/12 03:33:14;;;;;;;28.33;12.85;;;16.30;99.90;;;;;;5002619;28;20253;-53
2021/09/12 03:35:40;;;;;;;26.38;12.88;;;16.30;99.90;;;;;;4998393;28;20030;-55
2021/09/12 03:38:06;;;;;;;23.17;13.43;;;16.30;99.90;;;;;;5000077;28;20490;-53
2021/09/12 03:40:32;;;;;;;23.02;12.07;;;16.30;99.90;;;;;;4996848;28;20034;-54
2021/09/12 03:42:58;;;;;;;23.23;12.48;;;16.20;99.90;;;;;;4998390;28;20460;-52
2021/09/12 03:45:23;;;;;;;23.98;13.18;;;16.20;99.90;;;;;;5001790;28;20550;-51
2021/09/12 03:47:49;;;;;;;27.35;12.68;;;16.20;99.90;;;;;;5011094;28;20050;-56
2021/09/12 03:50:15;;;;;;;22.60;11.75;;;16.20;99.90;;;;;;4996392;28;20038;-52
2021/09/12 03:52:40;;;;;;;28.75;11.77;;;16.20;99.90;;;;;;4998071;28;20035;-53
2021/09/12 03:55:07;;;;;;;25.15;11.63;;;16.20;99.90;;;;;;4999138;28;20061;-54
2021/09/12 03:57:33;;;;;;;26.45;12.15;;;16.20;99.90;;;;;;4988744;28;20046;-55
2021/09/12 03:59:58;;;;;;;31.60;13.07;;;16.20;99.90;;;;;;5020460;28;20494;-51
2021/09/12 04:02:24;;;;;;;21.13;10.93;;;16.20;99.90;;;;;;5018280;28;20550;-54
2021/09/12 04:04:50;;;;;;;24.23;11.27;;;16.20;99.90;;;;;;5013886;28;20137;-54
2021/09/12 04:07:15;;;;;;;26.48;11.80;;;16.20;99.90;;;;;;5006655;28;20037;-50
2021/09/12 04:09:41;;;;;;;24.88;11.85;;;16.10;99.90;;;;;;5002085;28;20554;-54
2021/09/12 04:12:07;;;;;;;24.42;11.82;;;16.10;99.90;;;;;;5025743;28;20053;-53
2021/09/12 04:14:32;;;;;;;33.60;12.35;;;16.20;99.90;;;;;;4997426;28;20042;-56
2021/09/12 04:16:58;;;;;;;30.80;11.88;;;16.10;99.90;;;;;;4978542;28;20483;-52
2021/09/12 04:19:23;;;;;;;21.83;11.70;;;16.10;99.90;;;;;;5004867;28;20046;-56
2021/09/12 04:21:49;;;;;;;27.80;11.80;;;16.10;99.90;;;;;;5002185;28;20110;-53
2021/09/12 04:24:14;;;;;;;22.70;10.60;;;16.10;99.90;;;;;;4998209;28;20046;-53
2021/09/12 04:26:40;;;;;;;26.60;11.07;;;16.10;99.90;;;;;;4971399;28;20102;-53
2021/09/12 04:29:06;;;;;;;26.42;12.07;;;16.00;99.90;;;;;;4992364;28;20049;-55
2021/09/12 04:31:31;;;;;;;27.77;11.23;;;16.00;99.90;;;;;;5006828;28;20041;-54
2021/09/12 04:33:57;;;;;;;22.35;11.27;;;16.00;99.90;;;;;;5000630;28;20045;-56
2021/09/12 04:36:23;;;;;;;33.80;11.43;;;16.00;99.90;;;;;;4991851;28;20117;-54
2021/09/12 04:38:48;;;;;;;24.30;11.50;;;16.00;99.90;;;;;;5000990;28;20447;-53
2021/09/12 04:41:14;;;;;;;20.10;10.50;;;15.90;99.90;;;;;;4993453;28;20041;-55
2021/09/12 04:43:40;;;;;;;25.77;11.50;;;15.90;99.90;;;;;;4992451;28;20046;-55
2021/09/12 04:46:06;;;;;;;28.42;11.15;;;15.90;99.90;;;;;;5004554;28;20042;-54
2021/09/12 04:48:33;;;;;;;28.92;11.23;;;15.90;99.90;;;;;;4994180;28;20034;-56
2021/09/12 04:50:59;;;;;;;24.58;10.90;;;15.90;99.90;;;;;;4986000;28;20100;-55
2021/09/12 04:53:24;;;;;;;24.77;10.32;;;15.90;99.90;;;;;;5008662;28;20407;-55
2021/09/12 04:55:50;;;;;;;26.80;10.32;;;15.90;99.90;;;;;;4996198;28;20161;-56
2021/09/12 04:58:16;;;;;;;23.35;10.55;;;15.80;99.90;;;;;;4973065;28;20478;-56
2021/09/12 05:00:41;;;;;;;19.40;10.88;;;15.90;99.90;;;;;;5011623;28;20029;-54
2021/09/12 05:03:07;;;;;;;21.00;10.80;;;15.90;99.90;;;;;;5011739;28;20038;-58
2021/09/12 05:05:32;;;;;;;23.95;12.00;;;15.80;99.90;;;;;;4993461;28;20042;-58
2021/09/12 05:07:58;;;;;;;21.00;10.50;;;15.80;99.90;;;;;;5007195;28;20490;-58
2021/09/12 05:10:24;;;;;;;25.83;11.25;;;15.80;99.90;;;;;;5004685;28;20507;-56
2021/09/12 05:12:49;;;;;;;25.13;11.10;;;15.80;99.90;;;;;;4994838;28;20088;-55
2021/09/12 05:15:15;;;;;;;20.42;10.48;;;15.80;99.90;;;;;;4994777;28;20042;-56
2021/09/12 05:17:41;;;;;;;20.70;10.77;;;15.70;99.90;;;;;;5006496;28;20046;-54
2021/09/12 05:20:07;;;;;;;22.35;11.13;;;15.70;99.90;;;;;;4994759;28;20034;-55
2021/09/12 05:22:34;;;;;;;25.30;10.63;;;15.70;99.90;;;;;;5008279;28;20402;-57
2021/09/12 05:25:00;;;;;;;26.58;10.80;;;15.70;99.90;;;;;;5007472;28;20128;-55
2021/09/12 05:27:26;;;;;;;21.88;10.95;;;15.70;99.90;;;;;;5011540;28;20348;-58
2021/09/12 05:29:51;;;;;;;23.13;11.02;;;15.70;99.90;;;;;;5010940;28;20065;-57
2021/09/12 05:32:17;;;;;;;24.90;11.40;;;15.60;99.90;;;;;;4990663;28;20037;-58
2021/09/12 05:34:43;;;;;;;22.58;10.75;;;15.60;99.90;;;;;;4992064;28;20088;-57
2021/09/12 05:37:08;;;;;;;28.25;11.23;;;15.60;99.90;;;;;;5012184;28;20128;-57
2021/09/12 05:39:34;;;;;;;25.92;11.40;;;15.60;99.90;;;;;;4990359;28;20062;-55
2021/09/12 05:42:00;;;;;;;29.02;11.35;;;15.60;99.90;;;;;;5007808;28;20084;-55
2021/09/12 05:44:25;;;;;;;21.30;11.07;;;15.60;99.90;;;;;;5007200;28;20085;-55
2021/09/12 05:46:52;;;;;;;24.48;11.27;;;15.50;99.90;;;;;;5008132;28;20030;-55
2021/09/12 05:49:19;;;;;;;23.40;11.30;;;15.60;99.90;;;;;;5010701;28;20045;-53
2021/09/12 05:51:45;;;;;;;25.40;12.30;;;15.60;99.90;;;;;;4994808;28;20345;-55
2021/09/12 05:54:11;;;;;;;23.15;11.40;;;15.60;99.90;;;;;;5010696;28;20422;-56
2021/09/12 05:56:36;;;;;;;22.77;10.60;;;15.60;99.90;;;;;;5006394;28;20038;-56
2021/09/12 05:59:02;;;;;;;26.83;11.10;;;15.60;99.90;;;;;;4991339;28;20162;-55
2021/09/12 06:01:27;;;;;;;24.92;11.55;;;15.60;99.90;;;;;;5004374;28;20042;-55
2021/09/12 06:03:53;;;;;;;19.70;10.65;;;15.60;99.90;;;;;;4957260;28;20056;-56
2021/09/12 06:06:19;;;;;;;20.08;11.23;;;15.60;99.90;;;;;;5004493;28;20041;-56
2021/09/12 06:08:44;;;;;;;26.17;11.15;;;15.60;99.90;;;;;;4991435;28;20109;-56
2021/09/12 06:11:10;;;;;;;24.08;11.15;;;15.60;99.90;;;;;;5002294;28;20430;-57
2021/09/12 06:13:37;;;;;;;24.50;11.45;;;15.70;99.90;;;;;;5006919;28;20082;-56
2021/09/12 06:16:05;;;;;;;25.40;11.35;;;15.70;99.90;;;;;;4979553;28;20037;-56
2021/09/12 06:18:31;;;;;;;21.88;11.82;;;15.70;99.90;;;;;;5006713;28;20085;-56
2021/09/12 06:20:57;;;;;;;23.95;11.07;;;15.70;99.90;;;;;;5010553;28;20074;-55
2021/09/12 06:23:23;;;;;;;26.40;10.90;;;15.70;99.90;;;;;;4976969;28;20453;-56
2021/09/12 06:25:48;;;;;;;21.42;10.48;;;15.70;99.90;;;;;;5006362;28;20092;-55
2021/09/12 06:28:14;;;;;;;22.38;11.02;;;15.80;99.90;;;;;;4999403;28;20491;-57
2021/09/12 06:30:44;;;;;;;29.10;11.90;;;15.80;99.90;;;;;;4997399;28;20039;-54
2021/09/12 06:33:10;;;;;;;25.25;11.73;;;15.80;99.90;;;;;;5008763;28;20069;-54
2021/09/12 06:35:36;;;;;;;21.05;9.82;;;15.80;99.90;;;;;;4990033;28;20421;-58
2021/09/12 06:38:01;;;;;;;23.02;10.73;;;15.80;99.90;;;;;;5013618;28;20124;-53
2021/09/12 06:40:30;;;;;;;25.23;10.65;;;15.90;99.90;;;;;;5013985;28;20073;-58
2021/09/12 06:42:58;;;;;;;26.30;11.02;;;15.90;99.90;;;;;;5013285;28;20050;-57
2021/09/12 06:45:25;;;;;;;24.05;11.23;;;15.90;99.90;;;;;;5006506;28;20498;-59
2021/09/12 06:47:51;;;;;;;20.27;10.52;;;15.90;99.90;;;;;;4993284;28;20073;-58
2021/09/12 06:50:16;;;;;;;20.98;10.60;;;16.00;99.90;;;;;;5015429;28;20034;-57
2021/09/12 06:52:42;;;;;;;20.52;10.73;;;16.00;99.90;;;;;;5011750;28;20037;-57
2021/09/12 06:55:09;;;;;;;20.92;10.13;;;16.00;99.90;;;;;;4984105;28;20088;-57
2021/09/12 06:57:35;;;;;;;19.67;10.55;;;16.00;99.90;;;;;;4990416;28;20050;-57
2021/09/12 07:00:00;;;;;;;24.33;10.48;;;16.00;99.90;;;;;;4994124;28;20057;-54
2021/09/12 07:02:26;;;;;;;19.40;10.48;;;16.00;99.90;;;;;;5001137;28;20407;-57
2021/09/12 07:04:52;;;;;;;24.70;11.10;;;16.00;99.90;;;;;;5006557;28;20042;-54
2021/09/12 07:07:18;;;;;;;22.33;10.52;;;16.00;99.90;;;;;;4990194;28;20026;-56
2021/09/12 07:09:43;;;;;;;21.85;11.23;;;16.00;99.90;;;;;;5011805;28;20025;-54
2021/09/12 07:12:11;;;;;;;23.27;11.60;;;16.10;99.90;;;;;;5010790;28;20038;-56
2021/09/12 07:14:36;;;;;;;23.75;11.85;;;16.10;99.90;;;;;;5003616;28;21249;-55
2021/09/12 07:17:02;;;;;;;26.88;13.02;;;16.10;99.90;;;;;;4995787;28;20093;-57
2021/09/12 07:19:28;;;;;;;27.95;13.60;;;16.10;99.90;;;;;;4960416;28;20038;-57
2021/09/12 07:21:53;;;;;;;30.00;14.85;;;16.10;99.90;;;;;;5003146;28;20489;-57
2021/09/12 07:24:19;;;;;;;32.83;14.63;;;16.20;99.90;;;;;;5011303;28;20426;-57
2021/09/12 07:26:44;;;;;;;37.72;16.25;;;16.20;99.90;;;;;;5001036;28;20029;-57
2021/09/12 07:29:10;;;;;;;33.63;15.65;;;16.20;99.90;;;;;;5000604;28;20521;-57
2021/09/12 07:31:36;;;;;;;36.78;16.75;;;16.30;99.90;;;;;;5008400;28;20034;-57
2021/09/12 07:34:02;;;;;;;39.03;17.38;;;16.30;99.90;;;;;;5010799;28;20068;-57
2021/09/12 07:36:29;;;;;;;36.15;17.63;;;16.30;99.90;;;;;;5007122;28;20491;-57
2021/09/12 07:38:54;;;;;;;37.25;16.55;;;16.30;99.90;;;;;;4993404;28;20042;-57
2021/09/12 07:41:20;;;;;;;40.55;17.52;;;16.30;99.90;;;;;;5020754;28;20551;-57
2021/09/12 07:43:46;;;;;;;42.92;17.52;;;16.40;99.90;;;;;;5003798;28;20038;-58
2021/09/12 07:46:11;;;;;;;46.35;20.02;;;16.40;99.90;;;;;;5005706;28;20065;-56
2021/09/12 07:48:37;;;;;;;47.25;19.02;;;16.40;99.90;;;;;;5013505;28;20041;-53
2021/09/12 07:51:03;;;;;;;43.28;19.42;;;16.40;99.90;;;;;;5003121;28;20046;-51
2021/09/12 07:53:29;;;;;;;47.22;18.90;;;16.50;99.90;;;;;;4992156;28;20037;-54
2021/09/12 07:55:55;;;;;;;46.38;20.00;;;16.40;99.90;;;;;;5004121;28;20105;-54
2021/09/12 07:58:20;;;;;;;52.38;20.90;;;16.50;99.90;;;;;;5006641;28;20510;-54
2021/09/12 08:00:46;;;;;;;48.72;21.00;;;16.50;99.90;;;;;;4993796;28;20030;-53
2021/09/12 08:03:12;;;;;;;48.45;20.92;;;16.50;99.90;;;;;;4993161;28;20069;-51
2021/09/12 08:05:38;;;;;;;49.80;20.67;;;16.50;99.90;;;;;;4960162;28;20038;-54
2021/09/12 08:08:04;;;;;;;49.97;20.90;;;16.50;99.90;;;;;;5001807;28;20121;-55
2021/09/12 08:10:30;;;;;;;51.45;22.83;;;16.50;99.90;;;;;;4986023;28;20085;-54
2021/09/12 08:12:55;;;;;;;47.38;21.13;;;16.50;99.90;;;;;;4976116;28;20042;-52
2021/09/12 08:15:21;;;;;;;46.20;21.13;;;16.50;99.90;;;;;;4992379;28;20038;-56
2021/09/12 08:17:47;;;;;;;52.55;21.80;;;16.50;99.90;;;;;;5000266;28;20510;-53
2021/09/12 08:20:12;;;;;;;52.08;21.75;;;16.50;99.90;;;;;;5004509;28;20136;-56
2021/09/12 08:22:38;;;;;;;47.60;22.17;;;16.50;99.90;;;;;;5029816;28;20083;-55
2021/09/12 08:25:05;;;;;;;55.10;22.08;;;16.50;99.90;;;;;;5012968;28;20113;-54
2021/09/12 08:27:30;;;;;;;49.90;21.00;;;16.50;99.90;;;;;;5010262;28;20042;-55
2021/09/12 08:29:56;;;;;;;50.75;21.00;;;16.50;99.90;;;;;;5024307;28;20064;-52
2021/09/12 08:32:22;;;;;;;53.13;20.40;;;16.50;99.90;;;;;;5000332;28;20034;-56
2021/09/12 08:34:48;;;;;;;46.80;21.95;;;16.50;99.90;;;;;;4961857;28;20766;-54
2021/09/12 08:37:14;;;;;;;47.10;21.23;;;16.50;99.90;;;;;;5000700;28;20158;-56
2021/09/12 08:39:41;;;;;;;51.25;22.20;;;16.50;99.90;;;;;;5013278;28;20040;-52
2021/09/12 08:42:07;;;;;;;53.50;23.05;;;16.50;99.90;;;;;;5011757;28;20394;-52
2021/09/12 08:44:36;;;;;;;55.90;23.92;;;16.50;99.90;;;;;;5011505;28;20042;-56
2021/09/12 08:47:02;;;;;;;57.80;24.70;;;16.50;99.90;;;;;;5012874;28;20069;-53
2021/09/12 08:49:29;;;;;;;50.42;23.33;;;16.50;99.90;;;;;;4983932;28;20057;-54
2021/09/12 08:51:54;;;;;;;64.55;24.38;;;16.50;99.90;;;;;;5012021;28;20116;-53
2021/09/12 08:54:20;;;;;;;57.20;24.08;;;16.50;99.90;;;;;;5011427;28;20583;-54
2021/09/12 08:56:45;;;;;;;51.70;22.98;;;16.50;99.90;;;;;;5007032;28;20042;-56
2021/09/12 08:59:25;;;;;;;56.28;24.17;;;16.50;99.90;;;;;;4992225;28;20042;-56
2021/09/12 09:01:54;;;;;;;56.58;23.83;;;16.50;99.90;;;;;;5009682;28;20525;-54
2021/09/12 09:04:20;;;;;;;68.90;25.25;;;16.50;99.90;;;;;;4991548;28;20049;-53
2021/09/12 09:06:45;;;;;;;55.00;23.98;;;16.50;99.90;;;;;;4982141;28;20034;-56
2021/09/12 09:09:11;;;;;;;61.28;25.58;;;16.60;99.90;;;;;;4991704;28;20451;-55
2021/09/12 09:11:39;;;;;;;56.53;23.98;;;16.60;99.90;;;;;;4992265;28;20046;-53
2021/09/12 09:14:16;;;;;;;48.25;23.92;;;16.60;99.90;;;;;;4958527;28;20042;-52
2021/09/12 09:16:44;;;;;;;53.40;23.52;;;16.60;99.90;;;;;;4999666;28;20033;-55
2021/09/12 09:19:10;;;;;;;56.47;24.48;;;16.70;99.90;;;;;;4974091;28;20502;-53
2021/09/12 09:21:41;;;;;;;52.58;23.42;;;16.70;99.90;;;;;;4983386;28;20054;-56
2021/09/12 09:24:29;;;;;;;50.08;23.52;;;16.70;99.90;;;;;;5008711;28;20046;-55
2021/09/12 09:27:00;;;;;;;49.78;23.35;;;16.70;99.90;;;;;;5013014;28;20409;-52
2021/09/12 09:29:30;;;;;;;60.38;24.30;;;16.70;99.90;;;;;;4999342;28;20070;-57
2021/09/12 09:32:07;;;;;;;53.83;24.05;;;16.70;99.90;;;;;;5007050;28;20450;-57
2021/09/12 09:34:35;;;;;;;50.05;24.42;;;16.70;99.90;;;;;;4992949;28;20037;-58
2021/09/12 09:37:12;;;;;;;51.47;24.50;;;16.70;99.90;;;;;;4984078;28;20054;-58
2021/09/12 09:39:41;;;;;;;52.85;24.52;;;16.70;99.90;;;;;;5004734;28;20165;-57
2021/09/12 09:42:35;;;;;;;57.42;25.70;;;16.70;99.90;;;;;;4991432;28;20117;-58
2021/09/12 09:45:06;;;;;;;51.08;25.63;;;16.70;99.90;;;;;;4991314;28;20053;-58
2021/09/12 09:47:31;;;;;;;56.75;26.33;;;16.70;99.90;;;;;;5012923;28;20048;-54
2021/09/12 09:50:05;;;;;;;58.63;26.05;;;16.70;99.90;;;;;;5015117;28;20048;-53
2021/09/12 09:52:36;;;;;;;58.22;26.63;;;16.70;99.90;;;;;;4990385;28;20551;-56
2021/09/12 09:55:03;;;;;;;59.25;26.77;;;16.70;99.90;;;;;;5008737;28;20038;-55
2021/09/12 09:57:29;;;;;;;56.13;27.20;;;16.80;99.90;;;;;;5001455;28;20493;-54
2021/09/12 09:59:55;;;;;;;58.28;27.33;;;16.80;99.90;;;;;;5003093;28;20037;-56
2021/09/12 10:02:21;;;;;;;52.05;25.08;;;16.80;99.90;;;;;;5010799;28;20116;-55
2021/09/12 10:04:47;;;;;;;52.67;26.60;;;16.80;99.90;;;;;;5009973;28;20069;-55
2021/09/12 10:07:13;;;;;;;55.25;27.45;;;16.80;99.90;;;;;;5006362;28;20438;-57
2021/09/12 10:09:39;;;;;;;56.45;28.92;;;16.80;99.90;;;;;;5018662;28;20052;-54
2021/09/12 10:12:12;;;;;;;55.13;28.50;;;16.90;99.90;;;;;;5035025;28;20155;-54
2021/09/12 10:14:46;;;;;;;59.30;28.35;;;16.90;99.90;;;;;;5033833;28;20068;-54
2021/09/12 10:17:14;;;;;;;55.58;27.80;;;16.90;99.90;;;;;;5022538;28;20402;-53
2021/09/12 10:19:44;;;;;;;53.08;26.80;;;16.90;99.90;;;;;;5015604;28;20044;-56
2021/09/12 10:22:27;;;;;;;56.50;26.52;;;17.00;99.90;;;;;;5015252;28;20117;-55
2021/09/12 10:25:02;;;;;;;53.53;25.60;;;17.00;99.90;;;;;;4998439;28;20111;-57
2021/09/12 10:27:42;;;;;;;56.15;26.63;;;17.10;99.90;;;;;;4969963;28;20046;-57
2021/09/12 10:30:37;;;;;;;50.75;25.60;;;17.10;99.90;;;;;;4995100;28;20125;-57
2021/09/12 10:33:06;;;;;;;62.33;27.88;;;17.10;99.90;;;;;;4990714;28;20046;-58
2021/09/12 10:36:03;;;;;;;50.95;26.65;;;17.20;99.90;;;;;;4999294;28;20077;-58
2021/09/12 10:38:39;;;;;;;49.42;26.75;;;17.10;99.90;;;;;;5025615;28;20563;-55
2021/09/12 10:41:10;;;;;;;50.05;26.02;;;17.20;99.90;;;;;;5015127;28;20069;-54
2021/09/12 10:43:39;;;;;;;52.90;27.53;;;17.20;99.90;;;;;;5009970;28;20093;-54
2021/09/12 10:46:04;;;;;;;54.90;27.48;;;17.20;99.90;;;;;;5004210;28;20041;-54
2021/09/12 10:48:33;;;;;;;50.20;27.33;;;17.20;99.90;;;;;;4999844;28;20518;-54
2021/09/12 10:51:01;;;;;;;50.47;27.65;;;17.30;99.90;;;;;;5005446;28;20037;-54
2021/09/12 10:53:47;;;;;;;47.35;26.10;;;17.30;99.90;;;;;;5013009;28;20042;-55
2021/09/12 10:56:19;;;;;;;52.38;27.35;;;17.30;99.90;;;;;;5013606;28;20145;-52
2021/09/12 10:58:50;;;;;;;51.08;27.65;;;17.30;99.90;;;;;;5013638;28;20038;-54
2021/09/12 11:01:40;;;;;;;49.95;28.13;;;17.40;99.90;;;;;;5014953;28;20450;-55
2021/09/12 11:04:06;;;;;;;49.08;26.50;;;17.40;99.90;;;;;;5013227;28;20204;-57
2021/09/12 11:06:35;;;;;;;51.42;27.65;;;17.30;99.90;;;;;;5013732;28;20634;-57
2021/09/12 11:09:03;;;;;;;53.42;26.83;;;17.40;99.90;;;;;;5007894;28;20565;-57
2021/09/12 11:11:28;;;;;;;50.30;26.40;;;17.50;99.90;;;;;;4994303;28;20069;-57
2021/09/12 11:13:57;;;;;;;48.08;27.48;;;17.60;99.90;;;;;;5021927;28;20046;-55
2021/09/12 11:16:24;;;;;;;46.95;28.08;;;17.80;99.90;;;;;;5021202;28;20042;-55
2021/09/12 11:19:00;;;;;;;48.05;27.80;;;18.00;99.90;;;;;;4993059;28;20060;-57
2021/09/12 11:21:44;;;;;;;48.67;27.67;;;18.10;99.90;;;;;;4963490;28;20098;-54
2021/09/12 11:24:30;;;;;;;44.40;25.75;;;18.30;99.90;;;;;;4973877;28;20442;-57
2021/09/12 11:27:01;;;;;;;51.13;27.08;;;18.50;99.90;;;;;;4994102;28;20069;-57
2021/09/12 11:29:38;;;;;;;44.47;25.93;;;18.50;99.90;;;;;;4998169;28;20081;-57
2021/09/12 11:32:08;;;;;;;43.38;26.38;;;18.60;99.80;;;;;;5023093;28;20113;-56
2021/09/12 11:34:37;;;;;;;43.70;26.13;;;18.70;99.10;;;;;;5010312;28;20041;-55
2021/09/12 11:37:14;;;;;;;39.03;25.98;;;18.80;99.30;;;;;;4997924;28;20057;-56
2021/09/12 11:39:41;;;;;;;44.10;26.17;;;18.80;98.80;;;;;;5007037;28;20038;-57
2021/09/12 11:42:10;;;;;;;44.28;25.55;;;18.80;98.80;;;;;;4998670;28;20344;-56
2021/09/12 11:44:40;;;;;;;42.85;25.35;;;18.90;98.70;;;;;;5007328;28;20037;-56
2021/09/12 11:47:11;;;;;;;36.75;24.67;;;19.00;98.70;;;;;;5012519;28;20572;-57
2021/09/12 11:49:38;;;;;;;37.88;22.95;;;19.00;98.40;;;;;;5008418;28;20112;-56
2021/09/12 11:52:04;;;;;;;36.20;22.40;;;19.10;98.30;;;;;;5008463;28;20491;-56
2021/09/12 11:54:37;;;;;;;34.45;23.58;;;19.10;98.10;;;;;;4979631;28;20085;-56
2021/09/12 11:57:07;;;;;;;40.65;23.92;;;19.10;98.10;;;;;;5007394;28;20081;-56
2021/09/12 11:59:44;;;;;;;37.22;24.05;;;19.10;98.10;;;;;;5002256;28;20049;-56
2021/09/12 12:02:12;;;;;;;41.63;24.15;;;19.10;98.00;;;;;;5002802;28;20042;-56
2021/09/12 12:04:39;;;;;;;31.67;22.48;;;19.20;98.20;;;;;;5003521;28;20394;-56
2021/09/12 12:07:05;;;;;;;36.42;23.65;;;19.20;97.90;;;;;;4961290;28;20384;-56
2021/09/12 12:09:41;;;;;;;32.03;22.27;;;19.30;97.90;;;;;;5018423;28;20045;-56
2021/09/12 12:12:15;;;;;;;34.17;23.02;;;19.40;97.50;;;;;;5019745;28;20052;-57
2021/09/12 12:15:00;;;;;;;29.75;21.30;;;19.50;97.40;;;;;;5004757;28;20121;-56
2021/09/12 12:17:30;;;;;;;36.35;23.02;;;19.60;97.30;;;;;;5016136;28;20053;-56
2021/09/12 12:19:56;;;;;;;31.17;20.98;;;19.80;96.40;;;;;;5000233;28;20054;-53
2021/09/12 12:22:33;;;;;;;30.88;21.42;;;19.90;96.30;;;;;;4992915;28;20174;-56
2021/09/12 12:24:59;;;;;;;35.22;23.70;;;19.90;96.10;;;;;;4982186;28;20076;-55
2021/09/12 12:27:24;;;;;;;40.72;22.80;;;19.90;96.20;;;;;;5012376;28;20042;-52
2021/09/12 12:30:08;;;;;;;35.50;23.00;;;19.90;95.90;;;;;;5003911;28;20033;-55